createdAt,value
2024-03-15T00:01:42.701Z,6.88
2024-03-15T00:04:11.988Z,6.96
2024-03-15T00:06:39.733Z,6.76
2024-03-15T00:09:07.243Z,6.96
2024-03-15T00:11:34.833Z,7.00
2024-03-15T00:14:02.648Z,6.62
2024-03-15T00:16:30.247Z,6.89
2024-03-15T00:18:59.548Z,6.77
2024-03-15T00:21:27.873Z,6.71
2024-03-15T00:23:55.733Z,6.65
2024-03-15T00:26:23.214Z,6.65
2024-03-15T00:28:50.578Z,6.65
2024-03-15T00:31:18.807Z,6.53
2024-03-15T00:33:46.957Z,6.65
2024-03-15T00:36:19.046Z,6.62
2024-03-15T00:38:46.741Z,6.31
2024-03-15T00:41:14.362Z,6.50
2024-03-15T00:43:41.976Z,6.55
2024-03-15T00:46:10.259Z,6.57
2024-03-15T00:48:38.037Z,6.57
2024-03-15T00:51:05.841Z,6.58
2024-03-15T00:53:33.351Z,6.60
2024-03-15T00:56:00.924Z,6.53
2024-03-15T00:58:28.468Z,6.68
2024-03-15T01:00:56.145Z,6.60
2024-03-15T01:03:26.865Z,6.74
2024-03-15T01:05:58.462Z,6.86
2024-03-15T01:08:27.604Z,6.97
2024-03-15T01:10:56.872Z,7.06
2024-03-15T01:13:24.507Z,7.06
2024-03-15T01:15:51.957Z,6.84
2024-03-15T01:18:19.611Z,6.62
2024-03-15T01:20:47.145Z,6.43
2024-03-15T01:23:14.777Z,6.39
2024-03-15T01:25:42.189Z,6.05
2024-03-15T01:28:09.780Z,5.96
2024-03-15T01:30:37.182Z,5.88
2024-03-15T01:33:05.103Z,6.04
2024-03-15T01:35:36.299Z,6.02
2024-03-15T01:38:04.777Z,6.02
2024-03-15T01:40:33.213Z,6.10
2024-03-15T01:43:01.583Z,6.09
2024-03-15T01:45:29.803Z,6.04
2024-03-15T01:47:58.498Z,6.08
2024-03-15T01:50:28.281Z,6.17
2024-03-15T01:52:57.563Z,6.43
2024-03-15T01:55:25.873Z,6.47
2024-03-15T01:57:53.639Z,6.53
2024-03-15T02:00:22.051Z,6.34
2024-03-15T02:02:50.089Z,6.37
2024-03-15T02:05:17.409Z,6.28
2024-03-15T02:07:45.063Z,6.39
2024-03-15T02:10:15.052Z,6.47
2024-03-15T02:12:43.666Z,6.53
2024-03-15T02:15:12.010Z,6.57
2024-03-15T02:17:43.728Z,6.63
2024-03-15T02:20:16.937Z,6.63
2024-03-15T02:22:45.795Z,6.62
2024-03-15T02:25:14.389Z,6.60
2024-03-15T02:27:41.956Z,6.60
2024-03-15T02:30:10.945Z,6.62
2024-03-15T02:32:40.149Z,6.63
2024-03-15T02:35:20.026Z,6.62
2024-03-15T02:37:53.879Z,6.60
2024-03-15T02:40:21.665Z,6.61
2024-03-15T02:42:49.625Z,6.58
2024-03-15T02:45:18.716Z,6.58
2024-03-15T02:47:46.456Z,6.59
2024-03-15T02:50:14.046Z,6.56
2024-03-15T02:52:41.723Z,6.30
2024-03-15T02:55:09.532Z,6.41
2024-03-15T02:57:37.121Z,6.43
2024-03-15T03:00:05.376Z,6.26
2024-03-15T03:02:35.035Z,6.16
2024-03-15T03:05:02.737Z,5.93
2024-03-15T03:07:31.802Z,5.77
2024-03-15T03:09:59.504Z,5.72
2024-03-15T03:12:27.695Z,5.71
2024-03-15T03:14:55.427Z,5.67
2024-03-15T03:17:23.200Z,5.54
2024-03-15T03:19:51.247Z,5.59
2024-03-15T03:22:19.139Z,5.55
2024-03-15T03:24:48.090Z,5.50
2024-03-15T03:27:16.145Z,5.45
2024-03-15T03:29:44.026Z,5.39
2024-03-15T03:32:13.207Z,5.36
2024-03-15T03:34:41.665Z,5.20
2024-03-15T03:37:09.526Z,5.32
2024-03-15T03:39:37.355Z,5.36
2024-03-15T03:42:06.767Z,5.28
2024-03-15T03:44:34.570Z,5.39
2024-03-15T03:47:05.149Z,5.42
2024-03-15T03:49:32.899Z,5.40
2024-03-15T03:52:00.488Z,5.38
2024-03-15T03:54:28.701Z,5.36
2024-03-15T03:56:56.318Z,5.46
2024-03-15T03:59:24.628Z,5.42
2024-03-15T04:01:52.351Z,5.45
2024-03-15T04:04:23.019Z,5.47
2024-03-15T04:06:53.941Z,5.48
2024-03-15T04:09:22.838Z,5.48
2024-03-15T04:11:50.843Z,5.59
2024-03-15T04:14:18.732Z,5.65
2024-03-15T04:16:46.498Z,5.70
2024-03-15T04:19:15.350Z,5.52
2024-03-15T04:21:46.545Z,5.57
2024-03-15T04:24:14.183Z,5.84
2024-03-15T04:26:41.807Z,5.95
2024-03-15T04:29:10.003Z,6.14
2024-03-15T04:31:37.511Z,6.27
2024-03-15T04:34:05.256Z,6.29
2024-03-15T04:36:32.938Z,6.39
2024-03-15T04:39:00.845Z,6.45
2024-03-15T04:41:29.105Z,6.52
2024-03-15T04:43:57.762Z,6.27
2024-03-15T04:46:25.329Z,6.71
2024-03-15T04:48:53.259Z,6.92
2024-03-15T04:51:21.793Z,6.96
2024-03-15T04:53:50.335Z,7.11
2024-03-15T04:56:18.655Z,7.19
2024-03-15T04:58:47.480Z,7.24
2024-03-15T05:01:15.778Z,7.22
2024-03-15T05:03:44.355Z,7.14
2024-03-15T05:06:17.105Z,7.23
2024-03-15T05:08:57.687Z,7.20
2024-03-15T05:11:32.394Z,7.29
2024-03-15T05:14:00.196Z,7.35
2024-03-15T05:16:28.091Z,7.44
2024-03-15T05:18:58.277Z,7.45
2024-03-15T05:21:25.987Z,7.62
2024-03-15T05:23:53.975Z,7.67
2024-03-15T05:26:22.308Z,7.75
2024-03-15T05:28:50.493Z,7.82
2024-03-15T05:31:25.414Z,7.91
2024-03-15T05:33:53.007Z,7.72
2024-03-15T05:36:20.623Z,8.29
2024-03-15T05:38:48.585Z,8.45
2024-03-15T05:41:17.532Z,8.59
2024-03-15T05:43:45.710Z,8.87
2024-03-15T05:46:13.644Z,9.03
2024-03-15T05:48:41.608Z,9.19
2024-03-15T05:51:09.464Z,9.27
2024-03-15T05:53:37.042Z,9.46
2024-03-15T05:56:05.235Z,9.65
2024-03-15T05:58:33.171Z,9.74
2024-03-15T06:01:01.075Z,9.84
2024-03-15T06:03:29.313Z,9.91
2024-03-15T06:05:56.881Z,9.94
2024-03-15T06:08:28.227Z,10.03
2024-03-15T06:10:56.015Z,10.11
2024-03-15T06:13:23.628Z,10.20
2024-03-15T06:15:51.577Z,10.32
2024-03-15T06:18:19.541Z,10.51
2024-03-15T06:20:48.801Z,10.62
2024-03-15T06:23:17.741Z,10.70
2024-03-15T06:25:45.718Z,10.61
2024-03-15T06:28:15.208Z,10.63
2024-03-15T06:30:48.398Z,10.65
2024-03-15T06:33:17.505Z,10.53
2024-03-15T06:35:52.061Z,10.62
2024-03-15T06:38:32.165Z,10.55
2024-03-15T06:41:15.307Z,10.56
2024-03-15T06:43:43.993Z,10.70
2024-03-15T06:46:22.196Z,10.82
2024-03-15T06:48:59.964Z,11.05
2024-03-15T06:51:47.518Z,11.18
2024-03-15T06:54:16.752Z,11.34
2024-03-15T06:56:45.472Z,11.50
2024-03-15T06:59:13.230Z,11.61
2024-03-15T07:01:41.457Z,11.72
2024-03-15T07:04:11.946Z,11.72
2024-03-15T07:06:39.709Z,11.77
2024-03-15T07:09:16.423Z,11.86
2024-03-15T07:11:49.584Z,11.78
2024-03-15T07:14:17.745Z,12.13
2024-03-15T07:16:45.499Z,12.22
2024-03-15T07:19:15.258Z,12.36
2024-03-15T07:21:44.578Z,12.53
2024-03-15T07:24:12.106Z,12.58
2024-03-15T07:26:40.856Z,12.72
2024-03-15T07:29:09.285Z,12.85
2024-03-15T07:31:37.207Z,13.04
2024-03-15T07:34:05.646Z,13.33
2024-03-15T07:36:34.123Z,13.42
2024-03-15T07:39:02.031Z,13.62
2024-03-15T07:41:33.645Z,13.76
2024-03-15T07:44:02.512Z,13.88
2024-03-15T07:46:30.417Z,13.79
2024-03-15T07:48:59.526Z,13.66
2024-03-15T07:51:27.388Z,13.71
2024-03-15T07:53:54.849Z,13.64
2024-03-15T07:56:23.552Z,13.73
2024-03-15T07:58:54.432Z,13.71
2024-03-15T08:01:22.822Z,13.75
2024-03-15T08:03:50.831Z,13.89
2024-03-15T08:06:19.576Z,14.05
2024-03-15T08:08:48.293Z,14.23
2024-03-15T08:11:16.116Z,14.22
2024-03-15T08:13:43.868Z,14.29
2024-03-15T08:16:20.888Z,14.08
2024-03-15T08:18:50.656Z,14.05
2024-03-15T08:21:19.265Z,14.26
2024-03-15T08:23:47.272Z,14.45
2024-03-15T08:26:15.094Z,14.74
2024-03-15T08:28:42.774Z,14.78
2024-03-15T08:31:11.605Z,14.78
2024-03-15T08:33:39.502Z,14.92
2024-03-15T08:36:07.736Z,15.04
2024-03-15T08:38:35.663Z,14.98
2024-03-15T08:41:04.143Z,14.94
2024-03-15T08:43:32.664Z,14.84
2024-03-15T08:46:00.676Z,14.95
2024-03-15T08:48:32.394Z,15.27
2024-03-15T08:51:00.349Z,15.42
2024-03-15T08:53:28.119Z,15.71
2024-03-15T08:55:55.950Z,16.01
2024-03-15T08:58:23.611Z,16.17
2024-03-15T09:00:51.586Z,16.07
2024-03-15T09:03:20.403Z,16.05
2024-03-15T12:12:14.057Z,15.53
2024-03-15T12:14:43.184Z,15.15
2024-03-15T12:17:15.847Z,14.86
2024-03-15T12:19:44.330Z,14.74
2024-03-15T12:22:12.171Z,15.24
2024-03-15T12:24:40.361Z,16.00
2024-03-15T12:27:11.879Z,16.23
2024-03-15T12:29:39.643Z,16.76
2024-03-15T12:32:07.569Z,16.29
2024-03-15T12:34:35.325Z,15.93
2024-03-15T12:37:03.532Z,15.98
2024-03-15T12:39:31.573Z,16.05
2024-03-15T12:41:58.897Z,15.95
2024-03-15T12:44:26.663Z,16.12
2024-03-15T12:46:54.493Z,16.25
2024-03-15T12:49:22.321Z,16.18
2024-03-15T12:51:50.038Z,16.38
2024-03-15T12:54:18.156Z,16.42
2024-03-15T12:56:48.096Z,16.70
2024-03-15T12:59:15.772Z,16.90
2024-03-15T13:01:43.485Z,17.20
2024-03-15T13:04:11.268Z,16.85
2024-03-15T13:06:42.872Z,16.57
2024-03-15T13:09:10.712Z,16.48
2024-03-15T13:11:38.320Z,16.47
2024-03-15T13:14:06.047Z,16.10
2024-03-15T13:16:33.764Z,15.98
2024-03-15T13:19:01.500Z,15.98
2024-03-15T13:21:29.377Z,15.82
2024-03-15T13:23:58.024Z,15.55
2024-03-15T13:26:26.288Z,15.51
2024-03-15T13:28:57.056Z,15.49
2024-03-15T13:31:25.426Z,15.25
2024-03-15T13:33:53.221Z,15.26
2024-03-15T13:36:21.405Z,15.22
2024-03-15T13:38:49.164Z,15.20
2024-03-15T13:41:17.009Z,15.12
2024-03-15T13:43:44.815Z,15.18
2024-03-15T13:46:15.310Z,15.24
2024-03-15T13:48:45.565Z,15.20
2024-03-15T13:51:14.476Z,15.03
2024-03-15T13:53:46.215Z,14.80
2024-03-15T13:56:15.447Z,14.60
2024-03-15T13:58:45.356Z,14.55
2024-03-15T14:01:16.180Z,14.68
2024-03-15T14:03:44.897Z,14.77
2024-03-15T14:06:12.474Z,14.83
2024-03-15T14:08:40.295Z,14.78
2024-03-15T14:11:10.642Z,14.66
2024-03-15T14:13:38.591Z,14.51
2024-03-15T14:16:06.611Z,14.32
2024-03-15T14:18:34.802Z,14.03
2024-03-15T14:21:02.348Z,13.74
2024-03-15T14:23:30.343Z,13.59
2024-03-15T14:25:57.860Z,13.46
2024-03-15T14:28:25.567Z,13.38
2024-03-15T14:30:57.696Z,13.44
2024-03-15T14:33:26.001Z,13.39
2024-03-15T14:35:56.839Z,13.23
2024-03-15T14:38:27.099Z,13.09
2024-03-15T14:40:57.845Z,12.90
2024-03-15T14:43:25.480Z,12.61
2024-03-15T14:45:53.604Z,12.50
2024-03-15T14:48:21.925Z,12.35
2024-03-15T14:50:52.745Z,12.15
2024-03-15T14:53:22.397Z,12.05
2024-03-15T14:55:52.126Z,12.02
2024-03-15T14:58:19.596Z,12.02
2024-03-15T15:00:50.803Z,12.04
2024-03-15T15:03:24.345Z,12.01
2024-03-15T15:05:53.002Z,12.00
2024-03-15T15:08:23.585Z,11.96
2024-03-15T15:10:52.733Z,11.97
2024-03-15T15:13:21.685Z,11.98
2024-03-15T15:15:52.430Z,11.98
2024-03-15T15:18:20.395Z,11.95
2024-03-15T15:20:51.358Z,11.92
2024-03-15T15:23:19.795Z,11.86
2024-03-15T15:25:47.604Z,11.75
2024-03-15T15:28:16.149Z,11.73
2024-03-15T15:30:44.088Z,11.71
2024-03-15T15:33:11.892Z,11.71
2024-03-15T15:35:39.699Z,11.75
2024-03-15T15:38:09.285Z,11.75
2024-03-15T15:40:39.323Z,11.81
2024-03-15T15:43:08.387Z,11.87
2024-03-15T15:45:36.432Z,11.87
2024-03-15T15:48:06.955Z,11.63
2024-03-15T15:50:35.452Z,9.78
2024-03-15T15:53:03.078Z,9.22
2024-03-15T15:55:32.244Z,9.20
2024-03-15T15:58:00.578Z,8.95
2024-03-15T16:00:28.717Z,8.72
2024-03-15T16:02:57.532Z,8.72
2024-03-15T16:05:26.444Z,8.86
2024-03-15T16:07:55.635Z,9.03
2024-03-15T16:10:23.571Z,9.08
2024-03-15T16:12:51.283Z,9.02
2024-03-15T16:15:19.316Z,8.80
2024-03-15T16:17:47.251Z,8.57
2024-03-15T16:20:14.936Z,8.58
2024-03-15T16:22:45.486Z,8.63
2024-03-15T16:25:13.393Z,8.64
2024-03-15T16:27:41.309Z,8.71
2024-03-15T16:30:09.413Z,8.76
2024-03-15T16:32:37.859Z,8.68
2024-03-15T16:35:08.235Z,8.60
2024-03-15T16:37:36.722Z,8.65
2024-03-15T16:40:08.814Z,8.72
2024-03-15T16:42:39.793Z,8.64
2024-03-15T16:45:07.625Z,8.64
2024-03-15T16:47:35.866Z,8.63
2024-03-15T16:50:08.460Z,8.71
2024-03-15T16:52:37.864Z,8.69
2024-03-15T16:55:06.705Z,8.64
2024-03-15T16:57:37.571Z,8.77
2024-03-15T17:00:15.665Z,8.98
2024-03-15T17:02:47.474Z,9.08
2024-03-15T17:05:16.331Z,9.23
2024-03-15T17:07:44.029Z,9.42
2024-03-15T17:10:12.815Z,9.49
2024-03-15T17:12:41.422Z,9.34
2024-03-15T17:15:11.023Z,9.06
2024-03-15T17:17:38.725Z,8.96
2024-03-15T17:20:06.865Z,8.80
2024-03-15T17:22:34.414Z,8.88
2024-03-15T17:25:02.167Z,9.01
2024-03-15T17:27:30.400Z,9.02
2024-03-15T17:30:00.997Z,8.99
2024-03-15T17:32:30.941Z,8.90
2024-03-15T17:34:58.634Z,8.92
2024-03-15T17:37:26.458Z,8.98
2024-03-15T17:39:55.093Z,9.04
2024-03-15T17:42:23.953Z,9.15
2024-03-15T17:44:51.861Z,9.20
2024-03-15T17:47:19.891Z,9.21
2024-03-15T17:49:47.505Z,9.18
2024-03-15T17:52:15.388Z,9.12
2024-03-15T17:54:43.209Z,9.10
2024-03-15T17:57:11.198Z,9.14
2024-03-15T17:59:39.034Z,9.14
2024-03-15T18:02:10.734Z,9.11
2024-03-15T18:04:38.721Z,9.01
2024-03-15T18:07:06.622Z,8.98
2024-03-15T18:09:35.783Z,9.02
2024-03-15T18:12:03.494Z,9.05
2024-03-15T18:14:31.054Z,9.00
2024-03-15T18:16:58.423Z,8.93
2024-03-15T18:19:28.653Z,8.95
2024-03-15T18:21:56.183Z,8.92
2024-03-15T18:24:24.146Z,8.87
2024-03-15T18:26:51.670Z,8.90
2024-03-15T18:29:19.702Z,8.95
2024-03-15T18:31:47.410Z,9.00
2024-03-15T18:34:15.253Z,9.06
2024-03-15T18:36:43.177Z,9.11
2024-03-15T18:39:10.693Z,9.10
2024-03-15T18:41:38.194Z,9.01
2024-03-15T18:44:05.887Z,9.07
2024-03-15T18:46:34.625Z,9.11
2024-03-15T18:49:02.226Z,9.13
2024-03-15T18:51:29.872Z,9.16
2024-03-15T18:53:57.630Z,9.22
2024-03-15T18:56:25.120Z,9.23
2024-03-15T18:58:54.206Z,9.22
2024-03-15T19:01:22.115Z,9.20
2024-03-15T19:03:51.095Z,9.17
2024-03-15T19:06:19.096Z,9.11
2024-03-15T19:08:49.063Z,9.07
2024-03-15T19:11:17.842Z,9.05
2024-03-15T19:13:46.864Z,9.04
2024-03-15T19:16:15.047Z,9.04
2024-03-15T19:18:42.755Z,8.91
2024-03-15T19:21:10.499Z,8.85
2024-03-15T19:23:38.837Z,8.84
2024-03-15T19:26:07.491Z,8.86
2024-03-15T19:28:35.254Z,8.91
2024-03-15T19:31:03.537Z,8.94
2024-03-15T19:33:31.410Z,8.77
2024-03-15T19:35:59.156Z,8.64
2024-03-15T19:38:26.743Z,8.64
2024-03-15T19:40:54.290Z,8.77
2024-03-15T19:43:25.228Z,8.86
2024-03-15T19:45:53.456Z,8.62
2024-03-15T19:48:22.644Z,8.44
2024-03-15T19:50:50.661Z,8.39
2024-03-15T19:53:18.835Z,8.38
2024-03-15T19:55:49.556Z,8.47
2024-03-15T19:58:17.218Z,8.48
2024-03-15T20:00:45.161Z,8.38
2024-03-15T20:03:17.247Z,8.29
2024-03-15T20:05:45.216Z,8.31
2024-03-15T20:08:13.517Z,8.25
2024-03-15T20:10:41.868Z,8.23
2024-03-15T20:13:09.642Z,8.31
2024-03-15T20:15:37.777Z,8.40
2024-03-15T20:18:07.009Z,8.43
2024-03-15T20:20:34.548Z,8.49
2024-03-15T20:23:02.632Z,8.61
2024-03-15T20:25:30.261Z,8.72
2024-03-15T20:27:58.490Z,8.85
2024-03-15T20:30:26.848Z,8.90
2024-03-15T20:32:55.090Z,9.04
2024-03-15T20:35:24.796Z,8.98
2024-03-15T20:37:52.340Z,8.78
2024-03-15T20:40:21.507Z,8.80
2024-03-15T20:42:49.420Z,8.90
2024-03-15T20:45:17.324Z,8.90
2024-03-15T20:47:45.197Z,8.79
2024-03-15T20:50:13.457Z,8.71
2024-03-15T20:52:40.987Z,8.48
2024-03-15T20:55:08.898Z,8.29
2024-03-15T20:57:36.813Z,8.26
2024-03-15T21:00:05.107Z,8.14
2024-03-15T21:02:32.852Z,8.02
2024-03-15T21:05:00.465Z,8.10
2024-03-15T21:07:28.056Z,8.02
2024-03-15T21:09:56.132Z,7.98
2024-03-15T21:12:28.611Z,7.82
2024-03-15T21:14:56.527Z,7.87
2024-03-15T21:17:24.184Z,7.97
2024-03-15T21:19:53.636Z,8.15
2024-03-15T21:22:21.315Z,8.28
2024-03-15T21:24:52.431Z,8.36
2024-03-15T21:27:22.421Z,8.41
2024-03-15T21:29:50.628Z,8.46
2024-03-15T21:32:19.522Z,8.40
2024-03-15T21:34:47.404Z,8.52
2024-03-15T21:37:15.601Z,8.48
2024-03-15T21:39:43.475Z,8.48
2024-03-15T21:42:11.157Z,8.48
2024-03-15T21:44:43.559Z,8.50
2024-03-15T21:47:11.273Z,8.56
2024-03-15T21:49:39.057Z,8.64
2024-03-15T21:52:06.808Z,8.69
2024-03-15T21:54:34.447Z,8.70
2024-03-15T21:57:01.984Z,8.73
2024-03-15T21:59:30.061Z,8.73
2024-03-15T22:01:58.169Z,8.72
2024-03-15T22:04:31.858Z,8.70
2024-03-15T22:06:59.814Z,8.69
2024-03-15T22:09:28.189Z,8.67
2024-03-15T22:11:56.206Z,8.65
2024-03-15T22:14:23.812Z,8.64
2024-03-15T22:16:51.435Z,8.66
2024-03-15T22:19:18.940Z,8.66
2024-03-15T22:21:46.504Z,8.66
2024-03-15T22:24:13.942Z,8.64
2024-03-15T22:26:42.001Z,8.64
2024-03-15T22:29:10.732Z,8.63
2024-03-15T22:31:38.625Z,8.62
2024-03-15T22:34:06.869Z,8.55
2024-03-15T22:36:34.856Z,8.47
2024-03-15T22:39:02.224Z,8.36
2024-03-15T22:41:30.062Z,8.28
2024-03-15T22:43:57.785Z,8.18
2024-03-15T22:46:25.551Z,8.14
2024-03-15T22:48:53.308Z,8.09
2024-03-15T22:51:20.882Z,8.08
2024-03-15T22:53:48.298Z,8.08
2024-03-15T22:56:15.930Z,8.11
2024-03-15T22:58:43.575Z,8.12
2024-03-15T23:01:13.280Z,8.16
2024-03-15T23:03:47.339Z,8.16
2024-03-15T23:06:16.197Z,8.12
2024-03-15T23:08:44.088Z,8.16
2024-03-15T23:11:11.862Z,8.15
2024-03-15T23:13:40.403Z,8.14
2024-03-15T23:16:09.459Z,8.10
2024-03-15T23:18:37.161Z,8.03
2024-03-15T23:21:05.247Z,7.97
2024-03-15T23:23:33.390Z,7.89
2024-03-15T23:26:01.132Z,7.83
2024-03-15T23:28:28.626Z,7.64
2024-03-15T23:30:57.695Z,7.51
2024-03-15T23:33:26.979Z,7.41
2024-03-15T23:35:55.017Z,7.39
2024-03-15T23:38:23.004Z,7.40
2024-03-15T23:40:50.659Z,7.42
2024-03-15T23:43:20.462Z,7.45
2024-03-15T23:45:48.374Z,7.38
2024-03-15T23:48:28.215Z,7.48
2024-03-15T23:50:56.484Z,7.41
2024-03-15T23:53:24.046Z,7.36
2024-03-15T23:55:51.776Z,7.37
2024-03-15T23:58:19.885Z,7.37
